Time;durP1;ratioP1;P1;durP2;ratioP2;P2;SDS_P1;SDS_P2;PMS_P1;PMS_P2;Temp;Humidity;BMP_temperature;BMP_pressure;BME280_temperature;BME280_humidity;BME280_pressure;Samples;Min_cycle;Max_cycle;Signal;HPM_P1;HPM_P2
2023/08/08 00:00:36;;;;;;;1.77;1.20;;;;;;;14.06;100.00;99372.56;5076153;28;20192;-78
2023/08/08 00:03:03;;;;;;;1.27;1.15;;;;;;;14.11;100.00;99373.44;5039818;28;20435;-78
2023/08/08 00:05:30;;;;;;;1.30;1.20;;;;;;;14.13;100.00;99373.19;5068925;28;20198;-79
2023/08/08 00:07:56;;;;;;;1.33;1.23;;;;;;;13.95;100.00;99370.78;5066100;28;20221;-78
2023/08/08 00:10:23;;;;;;;1.23;1.13;;;;;;;14.11;100.00;99361.84;5053451;28;20205;-77
2023/08/08 00:12:50;;;;;;;1.67;1.20;;;;;;;13.98;100.00;99363.03;5070974;28;20647;-78
2023/08/08 00:15:17;;;;;;;1.20;1.10;;;;;;;14.17;100.00;99368.13;5067939;28;20246;-76
2023/08/08 00:17:43;;;;;;;2.37;1.27;;;;;;;14.18;100.00;99361.69;5074335;28;20677;-75
2023/08/08 00:20:10;;;;;;;1.40;1.13;;;;;;;14.09;100.00;99362.09;5074506;28;20286;-77
2023/08/08 00:22:37;;;;;;;2.23;1.10;;;;;;;14.07;100.00;99369.63;5073260;28;20197;-76
2023/08/08 00:25:04;;;;;;;1.93;1.07;;;;;;;13.97;100.00;99364.09;5069623;28;20189;-77
2023/08/08 00:27:30;;;;;;;3.00;1.13;;;;;;;13.97;100.00;99360.56;5063892;28;20196;-76
2023/08/08 00:29:57;;;;;;;1.10;1.00;;;;;;;14.28;100.00;99373.38;5069885;28;20213;-75
2023/08/08 00:32:24;;;;;;;1.53;1.10;;;;;;;14.37;100.00;99360.34;5064315;28;20208;-75
2023/08/08 00:34:50;;;;;;;1.43;1.10;;;;;;;14.33;100.00;99369.94;5067250;28;20198;-76
2023/08/08 00:37:17;;;;;;;1.37;1.20;;;;;;;14.25;100.00;99370.38;5065231;28;20247;-75
2023/08/08 00:39:45;;;;;;;2.27;1.00;;;;;;;14.16;100.00;99372.69;5072711;28;20197;-75
2023/08/08 00:42:13;;;;;;;3.13;1.10;;;;;;;14.27;100.00;99379.03;5069614;28;20279;-76
2023/08/08 00:44:40;;;;;;;1.67;1.10;;;;;;;14.18;100.00;99380.53;5072380;28;20211;-76
2023/08/08 00:47:08;;;;;;;1.03;0.90;;;;;;;14.35;100.00;99389.38;5073810;28;20193;-76
2023/08/08 00:49:35;;;;;;;1.27;1.17;;;;;;;14.18;100.00;99391.31;5055839;28;20242;-76
2023/08/08 00:52:03;;;;;;;1.70;1.10;;;;;;;14.13;100.00;99402.03;5071231;28;20667;-76
2023/08/08 00:54:30;;;;;;;1.13;1.00;;;;;;;14.16;100.00;99393.44;5051681;28;20189;-76
2023/08/08 00:56:57;;;;;;;1.10;1.00;;;;;;;14.10;100.00;99395.22;5062712;28;20763;-76
2023/08/08 00:59:23;;;;;;;2.00;1.10;;;;;;;14.23;100.00;99400.25;5074003;28;20668;-77
2023/08/08 01:01:50;;;;;;;1.27;1.10;;;;;;;14.31;100.00;99397.16;5055924;28;20247;-76
2023/08/08 01:04:18;;;;;;;1.10;1.00;;;;;;;14.21;100.00;99404.28;5054907;28;20197;-77
2023/08/08 01:07:09;;;;;;;1.73;1.00;;;;;;;14.22;100.00;99414.81;5064286;28;20256;-77
2023/08/08 01:09:42;;;;;;;1.10;1.00;;;;;;;14.35;100.00;99400.97;5079429;28;20203;-76
2023/08/08 01:12:11;;;;;;;1.70;1.00;;;;;;;14.32;100.00;99406.88;5068117;28;20295;-77
2023/08/08 01:14:38;;;;;;;1.70;1.20;;;;;;;14.38;100.00;99407.78;5076638;28;20197;-76
2023/08/08 01:17:05;;;;;;;1.23;1.13;;;;;;;14.33;100.00;99397.72;5101141;28;20202;-75
2023/08/08 01:19:34;;;;;;;1.17;1.07;;;;;;;14.24;100.00;99404.59;5073573;28;20196;-76
2023/08/08 01:22:03;;;;;;;1.90;0.90;;;;;;;14.14;100.00;99403.66;5087180;28;20197;-76
2023/08/08 01:24:32;;;;;;;1.17;0.90;;;;;;;14.08;100.00;99411.66;5079469;28;20211;-75
2023/08/08 01:27:00;;;;;;;1.63;1.00;;;;;;;13.99;100.00;99418.53;5074296;28;20677;-75
2023/08/08 01:29:27;;;;;;;1.57;1.00;;;;;;;14.03;100.00;99413.47;5065742;28;20286;-76
2023/08/08 01:31:54;;;;;;;1.20;1.10;;;;;;;14.15;100.00;99416.03;5095097;28;20192;-76
2023/08/08 01:34:21;;;;;;;1.17;0.87;;;;;;;14.11;100.00;99413.84;5107206;28;20196;-75
2023/08/08 01:36:54;;;;;;;1.27;0.90;;;;;;;14.06;100.00;99419.16;5098385;28;20196;-75
2023/08/08 01:39:26;;;;;;;1.10;1.00;;;;;;;13.94;100.00;99414.94;5097564;28;20212;-77
2023/08/08 01:41:58;;;;;;;2.03;1.10;;;;;;;13.99;100.00;99421.22;5099686;28;20273;-75
2023/08/08 01:44:26;;;;;;;1.00;0.90;;;;;;;13.90;100.00;99427.28;5101862;28;20564;-75
2023/08/08 01:46:54;;;;;;;0.93;0.90;;;;;;;14.06;100.00;99416.47;5090006;28;20192;-76
2023/08/08 01:49:20;;;;;;;1.03;0.90;;;;;;;14.01;100.00;99411.00;5074379;28;20240;-75
2023/08/08 01:51:48;;;;;;;1.80;0.97;;;;;;;14.04;100.00;99423.19;5099772;28;20641;-77
2023/08/08 01:54:15;;;;;;;1.53;1.00;;;;;;;13.92;100.00;99422.44;5086451;28;20634;-76
2023/08/08 01:56:41;;;;;;;1.47;1.20;;;;;;;14.09;100.00;99436.72;5079865;28;20189;-76
2023/08/08 01:59:08;;;;;;;0.83;0.77;;;;;;;14.10;100.00;99431.06;5093048;28;20196;-76
2023/08/08 02:01:35;;;;;;;0.93;0.90;;;;;;;13.98;100.00;99424.97;5071396;28;20191;-76
2023/08/08 02:04:02;;;;;;;1.00;0.83;;;;;;;14.04;100.00;99418.59;5099003;28;20709;-76
2023/08/08 02:06:29;;;;;;;1.40;1.20;;;;;;;14.08;100.00;99425.13;5102915;28;20188;-76
2023/08/08 02:08:58;;;;;;;0.97;0.87;;;;;;;14.26;100.00;99431.31;5062747;28;20208;-76
2023/08/08 02:11:25;;;;;;;1.47;0.97;;;;;;;14.09;100.00;99434.81;5066102;28;20189;-76
2023/08/08 02:13:52;;;;;;;0.83;0.70;;;;;;;14.08;100.00;99433.22;5053747;28;20202;-76
2023/08/08 02:16:19;;;;;;;2.33;0.90;;;;;;;14.08;100.00;99427.81;5074208;28;20189;-76
2023/08/08 02:18:46;;;;;;;1.23;0.83;;;;;;;14.16;100.00;99440.06;5051885;28;20216;-76
2023/08/08 02:21:12;;;;;;;0.90;0.70;;;;;;;14.10;100.00;99441.03;5061329;28;20223;-76
2023/08/08 02:23:39;;;;;;;1.10;0.90;;;;;;;14.08;100.00;99432.41;5043208;28;20214;-77
2023/08/08 02:26:06;;;;;;;0.90;0.80;;;;;;;14.14;100.00;99438.69;5068891;28;20193;-76
2023/08/08 02:28:32;;;;;;;0.87;0.83;;;;;;;14.11;100.00;99434.59;5053336;28;20189;-76
2023/08/08 02:30:59;;;;;;;1.00;0.87;;;;;;;14.06;100.00;99429.13;5073448;28;20185;-77
2023/08/08 02:33:26;;;;;;;1.20;1.00;;;;;;;14.06;100.00;99435.31;5054515;28;20254;-77
2023/08/08 02:35:52;;;;;;;1.07;0.97;;;;;;;14.08;100.00;99418.94;5060867;28;20243;-75
2023/08/08 02:38:19;;;;;;;0.87;0.87;;;;;;;14.05;100.00;99430.19;5066268;28;20568;-76
2023/08/08 02:40:46;;;;;;;0.93;0.93;;;;;;;13.91;100.00;99432.41;5040859;28;20273;-76
2023/08/08 02:43:13;;;;;;;1.00;0.80;;;;;;;13.95;100.00;99433.53;5062800;28;20221;-76
2023/08/08 02:45:39;;;;;;;1.60;0.87;;;;;;;13.90;100.00;99444.25;5050278;28;20645;-75
2023/08/08 02:48:06;;;;;;;1.30;1.00;;;;;;;13.84;100.00;99433.63;5056098;28;20548;-76
2023/08/08 02:50:33;;;;;;;0.90;0.90;;;;;;;13.95;100.00;99438.13;5046731;28;20269;-76
2023/08/08 02:53:00;;;;;;;1.63;0.93;;;;;;;13.99;100.00;99436.56;5063145;28;20276;-76
2023/08/08 02:55:33;;;;;;;1.60;0.97;;;;;;;13.86;100.00;99444.97;5035528;28;20209;-76
2023/08/08 02:57:59;;;;;;;1.17;0.80;;;;;;;13.83;100.00;99445.47;5040890;28;20230;-75
2023/08/08 03:00:26;;;;;;;1.10;0.80;;;;;;;13.88;100.00;99445.53;5050253;28;20190;-76
2023/08/08 03:02:54;;;;;;;1.07;0.80;;;;;;;13.87;100.00;99452.81;5048310;28;20204;-75
2023/08/08 03:05:20;;;;;;;0.80;0.80;;;;;;;13.77;100.00;99455.31;5059056;28;20212;-76
2023/08/08 03:07:48;;;;;;;1.00;0.90;;;;;;;13.78;100.00;99451.56;5076716;28;20239;-79
2023/08/08 03:10:15;;;;;;;0.87;0.87;;;;;;;13.71;100.00;99458.19;5090211;28;20265;-75
2023/08/08 03:12:42;;;;;;;1.20;1.10;;;;;;;13.74;100.00;99463.91;5096428;28;20674;-75
2023/08/08 03:15:10;;;;;;;0.97;0.83;;;;;;;13.74;100.00;99471.97;5094111;28;20295;-76
2023/08/08 03:17:37;;;;;;;0.90;0.90;;;;;;;13.77;100.00;99463.41;5094127;28;20204;-76
2023/08/08 03:20:06;;;;;;;0.80;0.80;;;;;;;13.72;100.00;99466.00;5093880;28;20211;-76
2023/08/08 03:22:33;;;;;;;1.23;0.90;;;;;;;13.65;100.00;99462.66;5095281;28;20215;-75
2023/08/08 03:25:01;;;;;;;0.90;0.87;;;;;;;13.64;100.00;99466.41;5091246;28;20273;-75
2023/08/08 03:27:27;;;;;;;0.70;0.70;;;;;;;13.72;100.00;99467.91;5093236;28;20195;-77
2023/08/08 03:29:54;;;;;;;1.33;0.70;;;;;;;13.70;100.00;99468.16;5093303;28;20227;-76
2023/08/08 03:32:22;;;;;;;1.00;0.90;;;;;;;13.65;100.00;99471.56;5091330;28;20203;-76
2023/08/08 03:34:48;;;;;;;1.37;0.90;;;;;;;13.59;100.00;99463.63;5090478;28;20626;-76
2023/08/08 03:37:15;;;;;;;1.20;1.10;;;;;;;13.50;100.00;99468.59;5094973;28;20207;-76
2023/08/08 03:39:42;;;;;;;1.07;0.97;;;;;;;13.56;100.00;99467.66;5092485;28;20203;-76
2023/08/08 03:42:09;;;;;;;2.30;1.10;;;;;;;13.50;100.00;99468.59;5091863;28;20212;-78
2023/08/08 03:44:36;;;;;;;0.93;0.90;;;;;;;13.50;100.00;99463.22;5094162;28;20250;-76
2023/08/08 03:47:03;;;;;;;1.13;0.97;;;;;;;13.43;100.00;99465.25;5092580;28;20714;-76
2023/08/08 03:49:45;;;;;;;1.13;1.07;;;;;;;13.58;100.00;99465.50;5089369;28;20243;-76
2023/08/08 03:52:12;;;;;;;1.00;0.97;;;;;;;13.61;100.00;99461.53;5089631;28;20184;-76
2023/08/08 03:54:39;;;;;;;1.20;1.00;;;;;;;13.65;100.00;99471.56;5094817;28;20566;-76
2023/08/08 03:57:06;;;;;;;2.20;1.00;;;;;;;13.73;100.00;99467.66;5094605;28;20185;-76
2023/08/08 03:59:33;;;;;;;0.80;0.80;;;;;;;13.95;100.00;99457.78;5089447;28;20295;-76
2023/08/08 04:02:00;;;;;;;1.10;1.00;;;;;;;14.59;100.00;99463.59;5094928;28;20625;-76
2023/08/08 04:04:28;;;;;;;0.80;0.77;;;;;;;15.28;100.00;99470.09;5093509;28;20231;-75
2023/08/08 04:06:54;;;;;;;1.03;0.93;;;;;;;15.92;100.00;99469.34;5099300;28;20220;-76
2023/08/08 04:09:21;;;;;;;1.20;0.90;;;;;;;16.00;100.00;99463.50;5099985;28;20695;-75
2023/08/08 04:11:48;;;;;;;0.90;0.90;;;;;;;15.72;100.00;99461.91;5109281;28;20188;-76
2023/08/08 04:14:16;;;;;;;1.40;0.97;;;;;;;15.43;100.00;99462.16;5093488;28;20550;-77
2023/08/08 04:16:43;;;;;;;1.00;0.90;;;;;;;15.23;100.00;99480.00;5095493;28;20184;-76
2023/08/08 04:19:09;;;;;;;1.87;1.00;;;;;;;15.09;100.00;99473.38;5109300;28;20253;-75
2023/08/08 04:21:37;;;;;;;1.10;0.80;;;;;;;15.01;100.00;99477.34;5103642;28;20205;-75
2023/08/08 04:24:03;;;;;;;1.60;1.00;;;;;;;14.94;100.00;99479.41;5091163;28;20186;-75
2023/08/08 04:26:30;;;;;;;1.27;0.93;;;;;;;14.90;100.00;99478.28;5106563;28;20231;-76
2023/08/08 04:28:57;;;;;;;0.80;0.80;;;;;;;14.91;100.00;99475.34;5107278;28;20192;-77
2023/08/08 04:31:26;;;;;;;1.43;0.93;;;;;;;15.00;100.00;99475.72;5097739;28;20295;-76
2023/08/08 04:33:58;;;;;;;2.17;1.10;;;;;;;15.04;100.00;99484.09;5096840;28;20188;-76
2023/08/08 04:36:27;;;;;;;1.00;0.90;;;;;;;14.98;100.00;99484.03;5101210;28;20193;-76
2023/08/08 04:38:54;;;;;;;2.13;1.10;;;;;;;14.98;100.00;99496.72;5108174;28;20523;-76
2023/08/08 04:41:21;;;;;;;1.70;1.10;;;;;;;14.97;100.00;99495.91;5090077;28;20564;-75
2023/08/08 04:43:48;;;;;;;1.17;0.77;;;;;;;14.93;100.00;99486.66;5082472;28;20226;-75
2023/08/08 04:46:15;;;;;;;1.47;1.10;;;;;;;14.92;100.00;99493.16;5095560;28;20579;-75
2023/08/08 04:48:41;;;;;;;1.80;1.00;;;;;;;14.96;100.00;99496.16;5109938;28;20188;-76
2023/08/08 04:51:08;;;;;;;0.93;0.80;;;;;;;15.02;100.00;99492.47;5109535;28;20212;-76
2023/08/08 04:53:35;;;;;;;1.23;1.13;;;;;;;15.04;100.00;99489.50;5109045;28;20188;-76
2023/08/08 04:56:02;;;;;;;1.90;1.00;;;;;;;15.11;100.00;99488.25;5091480;28;20666;-75
2023/08/08 04:58:29;;;;;;;1.17;1.00;;;;;;;15.11;100.00;99492.84;5103128;28;20246;-76
2023/08/08 05:00:56;;;;;;;1.00;0.90;;;;;;;15.11;100.00;99499.06;5096490;28;20216;-76
2023/08/08 05:03:22;;;;;;;0.80;0.80;;;;;;;15.25;100.00;99496.78;5101844;28;20274;-75
2023/08/08 05:05:49;;;;;;;1.27;1.17;;;;;;;15.31;100.00;99504.66;5113123;28;20278;-75
2023/08/08 05:08:16;;;;;;;1.60;1.13;;;;;;;15.44;100.00;99508.88;5112706;28;20227;-76
2023/08/08 05:10:43;;;;;;;1.30;1.00;;;;;;;15.55;100.00;99504.41;5095808;28;20262;-76
2023/08/08 05:13:10;;;;;;;2.23;1.00;;;;;;;15.75;100.00;99507.31;5088694;28;20196;-76
2023/08/08 05:15:37;;;;;;;1.13;1.00;;;;;;;16.00;100.00;99504.84;5101293;28;20666;-76
2023/08/08 05:18:04;;;;;;;1.10;1.00;;;;;;;16.33;100.00;99501.00;5093660;28;20651;-76
2023/08/08 05:20:30;;;;;;;1.30;1.07;;;;;;;16.69;100.00;99502.91;5103210;28;20201;-75
2023/08/08 05:22:57;;;;;;;1.37;1.27;;;;;;;17.06;100.00;99508.22;5102124;28;20258;-76
2023/08/08 05:25:24;;;;;;;0.83;0.83;;;;;;;17.39;100.00;99509.69;5087155;28;20192;-76
2023/08/08 05:27:51;;;;;;;1.27;1.17;;;;;;;17.78;100.00;99509.22;5093607;28;20701;-76
2023/08/08 05:30:17;;;;;;;1.83;1.00;;;;;;;18.03;100.00;99512.78;5100486;28;20606;-76
2023/08/08 05:32:44;;;;;;;1.30;1.10;;;;;;;18.38;100.00;99508.44;5103398;28;20184;-77
2023/08/08 05:35:11;;;;;;;1.43;1.13;;;;;;;18.70;100.00;99508.94;5106377;28;20199;-76
2023/08/08 05:37:37;;;;;;;1.37;1.27;;;;;;;19.08;100.00;99504.75;5111603;28;20631;-76
2023/08/08 05:40:06;;;;;;;1.40;1.07;;;;;;;19.49;100.00;99502.66;5098643;28;20197;-77
2023/08/08 05:42:33;;;;;;;1.80;1.20;;;;;;;19.79;100.00;99509.78;5107514;28;20217;-75
2023/08/08 05:45:00;;;;;;;1.30;1.20;;;;;;;20.02;100.00;99502.81;5111482;28;20248;-75
2023/08/08 05:47:26;;;;;;;1.80;1.30;;;;;;;20.15;100.00;99507.63;5103644;28;20192;-76
2023/08/08 05:49:54;;;;;;;2.17;1.30;;;;;;;20.32;100.00;99505.31;5106291;28;20211;-76
2023/08/08 05:52:21;;;;;;;1.40;1.30;;;;;;;20.31;100.00;99500.16;5110565;28;20201;-76
2023/08/08 05:54:48;;;;;;;1.97;1.10;;;;;;;20.37;100.00;99499.84;5104325;28;20200;-76
2023/08/08 05:57:15;;;;;;;1.10;1.00;;;;;;;20.30;100.00;99502.06;5103694;28;20214;-76
2023/08/08 05:59:44;;;;;;;1.43;1.17;;;;;;;20.29;100.00;99499.63;5111869;28;20188;-77
2023/08/08 06:02:11;;;;;;;1.30;1.17;;;;;;;20.29;100.00;99492.28;5103499;28;20198;-76
2023/08/08 06:04:38;;;;;;;1.73;1.10;;;;;;;20.19;100.00;99497.81;5108529;28;20189;-75
2023/08/08 06:07:05;;;;;;;2.23;1.10;;;;;;;20.20;100.00;99497.50;5112037;28;20582;-75
2023/08/08 06:09:37;;;;;;;3.53;1.30;;;;;;;20.42;100.00;99493.53;5095480;28;20193;-75
2023/08/08 06:12:05;;;;;;;1.33;1.10;;;;;;;20.69;100.00;99490.25;5100638;28;20675;-75
2023/08/08 06:14:32;;;;;;;1.17;1.03;;;;;;;20.78;100.00;99486.59;5103685;28;20203;-75
2023/08/08 06:16:59;;;;;;;1.30;1.20;;;;;;;20.79;98.92;99485.50;5096766;28;20226;-75
2023/08/08 06:19:26;;;;;;;3.03;1.10;;;;;;;20.88;98.32;99499.28;5085623;28;20210;-76
2023/08/08 06:21:53;;;;;;;2.87;1.20;;;;;;;21.04;96.10;99489.84;5086511;28;20269;-75
2023/08/08 06:24:19;;;;;;;1.20;1.00;;;;;;;20.99;94.78;99493.44;5081529;28;20661;-75
2023/08/08 06:26:46;;;;;;;1.40;1.30;;;;;;;21.07;95.41;99495.53;5098071;28;20275;-75
2023/08/08 06:29:14;;;;;;;2.13;1.23;;;;;;;21.20;93.15;99501.38;5095108;28;20194;-76
2023/08/08 06:31:41;;;;;;;1.67;1.20;;;;;;;21.29;92.46;99502.34;5086383;28;20709;-75
2023/08/08 06:34:08;;;;;;;1.67;1.00;;;;;;;21.12;93.57;99512.91;5090506;28;20600;-76
2023/08/08 06:36:34;;;;;;;1.57;1.10;;;;;;;21.05;93.57;99511.34;5091830;28;20207;-75
2023/08/08 06:39:01;;;;;;;1.73;1.00;;;;;;;20.88;93.22;99508.28;5092820;28;20633;-76
2023/08/08 06:41:28;;;;;;;2.40;1.20;;;;;;;20.81;93.05;99507.00;5095967;28;20204;-76
2023/08/08 06:43:54;;;;;;;1.80;1.20;;;;;;;21.05;94.49;99510.53;5099960;28;20230;-75
2023/08/08 06:46:21;;;;;;;2.70;1.20;;;;;;;21.16;93.60;99519.41;5099588;28;20270;-75
2023/08/08 06:48:49;;;;;;;1.98;1.20;;;;;;;21.27;91.22;99512.75;5091588;28;20318;-75
2023/08/08 06:51:15;;;;;;;2.55;1.20;;;;;;;21.30;91.10;99514.88;5098585;28;20227;-75
2023/08/08 06:53:42;;;;;;;2.25;1.30;;;;;;;21.41;87.55;99513.66;5093690;28;20192;-76
2023/08/08 06:56:09;;;;;;;1.90;1.48;;;;;;;21.44;89.27;99505.69;5109639;28;20339;-76
2023/08/08 06:58:35;;;;;;;1.40;1.30;;;;;;;21.51;88.68;99510.75;5094027;28;20215;-77
2023/08/08 07:01:02;;;;;;;1.30;1.20;;;;;;;21.51;87.16;99511.56;5110201;28;20191;-75
2023/08/08 07:03:29;;;;;;;1.55;1.20;;;;;;;21.54;86.42;99510.19;5103374;28;20548;-75
2023/08/08 07:05:56;;;;;;;1.63;1.27;;;;;;;21.53;86.51;99512.09;5090708;28;20257;-76
2023/08/08 07:08:23;;;;;;;1.88;1.00;;;;;;;21.54;87.49;99504.75;5064484;28;20350;-75
2023/08/08 07:10:50;;;;;;;1.92;1.10;;;;;;;21.70;88.36;99511.56;5071274;28;20223;-75
2023/08/08 07:13:18;;;;;;;1.77;1.30;;;;;;;21.91;87.72;99515.63;5071156;28;20211;-76
2023/08/08 07:15:44;;;;;;;1.25;1.00;;;;;;;22.20;87.21;99515.47;5069656;28;20201;-75
2023/08/08 07:18:11;;;;;;;2.10;0.95;;;;;;;22.36;85.93;99519.53;5069414;28;20185;-75
2023/08/08 07:20:39;;;;;;;1.25;1.00;;;;;;;22.62;84.36;99510.91;5070848;28;20220;-75
2023/08/08 07:23:06;;;;;;;1.75;1.20;;;;;;;22.62;81.94;99514.44;5068334;28;20190;-75
2023/08/08 07:25:32;;;;;;;1.17;1.08;;;;;;;22.57;80.51;99508.28;5070740;28;20705;-76
2023/08/08 07:27:59;;;;;;;1.88;1.30;;;;;;;22.68;79.35;99507.75;5070835;28;20220;-75
2023/08/08 07:30:26;;;;;;;1.40;0.93;;;;;;;22.76;78.38;99503.56;5068083;28;20716;-76
2023/08/08 07:32:52;;;;;;;1.63;1.15;;;;;;;22.32;78.39;99507.63;5065046;28;20190;-76
2023/08/08 07:35:19;;;;;;;1.17;1.08;;;;;;;22.61;77.92;99510.09;5066427;28;20539;-79
2023/08/08 07:37:46;;;;;;;1.52;1.13;;;;;;;22.80;78.32;99499.13;5059761;28;20284;-75
2023/08/08 07:40:19;;;;;;;1.35;1.20;;;;;;;22.86;75.34;99497.91;5070917;28;20255;-75
2023/08/08 07:42:47;;;;;;;1.30;1.08;;;;;;;22.98;74.52;99495.47;5066695;28;20201;-74
2023/08/08 07:45:14;;;;;;;1.30;1.13;;;;;;;23.19;73.32;99490.38;5052378;28;20762;-74
2023/08/08 07:47:41;;;;;;;1.30;1.20;;;;;;;23.49;73.67;99492.50;5074478;28;20196;-74
2023/08/08 07:50:08;;;;;;;1.40;1.30;;;;;;;23.95;73.77;99494.97;5066776;28;20194;-74
2023/08/08 07:52:36;;;;;;;1.48;1.00;;;;;;;23.83;72.92;99497.47;5069106;28;20571;-75
2023/08/08 07:55:04;;;;;;;1.95;1.00;;;;;;;24.01;72.11;99499.22;5070279;28;20197;-75
2023/08/08 07:57:33;;;;;;;1.30;1.20;;;;;;;23.38;72.57;99495.72;5068657;28;20260;-75
2023/08/08 08:00:07;;;;;;;1.40;1.20;;;;;;;23.65;71.77;99499.25;5072202;28;20659;-75
2023/08/08 08:02:41;;;;;;;1.15;1.08;;;;;;;24.04;70.61;99495.84;5064373;28;20197;-75
2023/08/08 08:05:08;;;;;;;1.17;1.08;;;;;;;24.38;69.53;99487.06;5072198;28;20201;-75
2023/08/08 08:07:35;;;;;;;1.33;1.23;;;;;;;24.34;68.06;99490.75;5068380;28;20758;-74
2023/08/08 08:10:02;;;;;;;0.95;0.90;;;;;;;24.78;67.63;99489.81;5065354;28;20181;-75
2023/08/08 08:12:30;;;;;;;3.00;1.38;;;;;;;25.15;67.74;99489.31;5070720;28;20201;-75
2023/08/08 08:14:57;;;;;;;1.50;1.00;;;;;;;25.50;67.15;99483.91;5073468;28;20196;-75
2023/08/08 08:17:24;;;;;;;0.93;0.90;;;;;;;25.70;63.72;99467.66;5070740;28;20249;-74
2023/08/08 08:19:51;;;;;;;1.15;1.05;;;;;;;25.88;65.70;99482.19;5071770;28;20204;-74
2023/08/08 08:22:17;;;;;;;1.13;1.08;;;;;;;26.17;64.20;99468.59;5072622;28;20219;-75
2023/08/08 08:24:45;;;;;;;1.55;1.08;;;;;;;26.04;62.67;99469.56;5073431;28;20202;-75
2023/08/08 08:27:13;;;;;;;1.23;1.10;;;;;;;26.14;62.92;99477.44;5074115;28;20648;-75
2023/08/08 08:29:40;;;;;;;1.23;1.00;;;;;;;25.90;62.22;99471.66;5064578;28;20227;-76
2023/08/08 08:32:06;;;;;;;1.02;0.75;;;;;;;26.05;62.23;99470.34;5073301;28;20585;-74
2023/08/08 08:34:33;;;;;;;1.27;0.90;;;;;;;26.31;60.91;99473.09;5071459;28;20562;-75
2023/08/08 08:37:00;;;;;;;4.28;1.10;;;;;;;25.61;61.36;99469.59;5073354;28;20224;-74
2023/08/08 08:39:26;;;;;;;1.35;1.25;;;;;;;25.02;61.31;99465.59;5073309;28;20270;-75
2023/08/08 08:42:01;;;;;;;1.17;1.08;;;;;;;25.21;62.20;99462.56;5073802;28;20657;-75
2023/08/08 08:44:30;;;;;;;1.42;1.02;;;;;;;25.39;62.07;99469.69;5073447;28;20202;-74
2023/08/08 08:47:02;;;;;;;1.52;1.00;;;;;;;24.73;61.63;99460.63;5073398;28;20247;-75
2023/08/08 08:49:30;;;;;;;1.48;0.80;;;;;;;24.72;62.56;99455.50;5071923;28;20199;-74
2023/08/08 08:52:00;;;;;;;1.23;1.10;;;;;;;24.85;62.96;99463.59;5073092;28;20211;-76
2023/08/08 08:54:31;;;;;;;1.23;1.00;;;;;;;24.71;63.39;99459.34;5073328;28;20294;-75
2023/08/08 08:56:58;;;;;;;1.10;1.00;;;;;;;24.92;63.67;99468.63;5071953;28;20676;-77
2023/08/08 08:59:25;;;;;;;0.85;0.85;;;;;;;25.19;61.44;99462.91;5072939;28;20189;-74
2023/08/08 09:01:53;;;;;;;1.10;1.00;;;;;;;25.35;63.46;99468.72;5072960;28;20286;-75
2023/08/08 09:04:21;;;;;;;1.10;1.00;;;;;;;25.40;61.69;99463.09;5072848;28;20605;-75
2023/08/08 09:06:49;;;;;;;1.08;0.93;;;;;;;25.21;60.22;99465.31;5063373;28;20325;-74
2023/08/08 09:09:17;;;;;;;0.93;0.90;;;;;;;24.97;60.58;99468.47;5093139;28;20208;-74
2023/08/08 09:11:45;;;;;;;1.00;0.82;;;;;;;25.02;61.02;99468.34;5091227;28;20265;-74
2023/08/08 09:14:19;;;;;;;1.40;0.88;;;;;;;24.79;61.93;99459.38;5090592;28;20252;-75
2023/08/08 09:16:47;;;;;;;0.80;0.80;;;;;;;24.65;62.33;99460.59;5091091;28;20715;-75
2023/08/08 09:19:14;;;;;;;2.10;1.10;;;;;;;24.31;62.65;99467.53;5090724;28;20340;-74
2023/08/08 09:21:41;;;;;;;1.17;1.10;;;;;;;24.52;60.96;99460.41;5091341;28;20567;-74
2023/08/08 09:24:08;;;;;;;1.85;1.05;;;;;;;24.69;61.36;99456.09;5091874;28;20227;-77
2023/08/08 09:26:35;;;;;;;1.25;1.00;;;;;;;24.09;61.24;99456.59;5092265;28;20189;-74
2023/08/08 09:29:03;;;;;;;1.00;0.90;;;;;;;24.56;61.14;99460.56;5093044;28;20260;-75
2023/08/08 09:31:30;;;;;;;1.10;0.98;;;;;;;24.65;62.29;99455.13;5087646;28;20220;-75
2023/08/08 09:33:58;;;;;;;1.13;0.95;;;;;;;24.91;60.84;99462.38;5093012;28;20246;-76
2023/08/08 09:36:25;;;;;;;1.10;1.00;;;;;;;24.90;61.32;99457.19;5092357;28;20216;-75
2023/08/08 09:38:53;;;;;;;2.20;1.00;;;;;;;24.74;61.63;99453.22;5091783;28;20303;-75
2023/08/08 09:41:21;;;;;;;1.20;0.90;;;;;;;24.96;61.45;99456.72;5082931;28;20710;-74
2023/08/08 09:43:48;;;;;;;1.60;0.90;;;;;;;25.04;62.12;99468.84;5091430;28;20194;-75
2023/08/08 09:46:18;;;;;;;1.67;1.10;;;;;;;25.06;59.89;99455.59;5092594;28;20192;-74
2023/08/08 09:48:45;;;;;;;1.60;0.90;;;;;;;24.94;59.70;99450.75;5092782;28;20215;-75
2023/08/08 09:51:12;;;;;;;2.60;0.90;;;;;;;24.90;58.99;99451.72;5092708;28;20275;-75
2023/08/08 09:53:39;;;;;;;0.80;0.75;;;;;;;24.96;59.66;99447.72;5092005;28;20269;-76
2023/08/08 09:56:07;;;;;;;2.90;1.00;;;;;;;25.01;58.88;99447.53;5091876;28;20207;-75
2023/08/08 09:58:33;;;;;;;1.23;1.00;;;;;;;24.99;60.47;99453.34;5092296;28;20200;-74
2023/08/08 10:01:00;;;;;;;1.48;0.93;;;;;;;25.08;58.40;99442.41;5087935;28;20191;-75
2023/08/08 10:03:28;;;;;;;1.20;1.10;;;;;;;25.34;58.79;99451.47;5092071;28;20215;-75
2023/08/08 10:05:55;;;;;;;1.42;0.85;;;;;;;25.56;57.10;99447.00;5092041;28;20658;-74
2023/08/08 10:08:22;;;;;;;0.98;0.88;;;;;;;25.64;56.84;99446.19;5096537;28;20285;-76
2023/08/08 10:10:50;;;;;;;1.10;1.00;;;;;;;25.90;56.68;99446.19;5093360;28;20653;-77
2023/08/08 10:13:22;;;;;;;1.10;0.90;;;;;;;26.33;55.67;99440.59;5103882;28;20203;-75
2023/08/08 10:15:49;;;;;;;1.17;0.93;;;;;;;26.03;54.51;99435.03;5107220;28;20233;-75
2023/08/08 10:18:16;;;;;;;1.23;1.05;;;;;;;26.21;54.85;99425.63;5111319;28;20755;-77
2023/08/08 10:20:47;;;;;;;0.77;0.70;;;;;;;26.68;55.61;99426.44;5077766;28;20201;-77
2023/08/08 10:23:17;;;;;;;1.13;1.00;;;;;;;26.59;53.45;99425.66;5093646;28;20638;-75
2023/08/08 10:25:45;;;;;;;1.98;0.90;;;;;;;26.68;54.15;99411.88;5102845;28;20196;-77
2023/08/08 10:28:14;;;;;;;1.10;1.00;;;;;;;26.61;53.11;99423.38;5103360;28;20750;-75
2023/08/08 10:30:57;;;;;;;1.58;0.95;;;;;;;26.36;52.16;99410.56;5090875;28;20192;-75
2023/08/08 10:33:43;;;;;;;1.05;0.98;;;;;;;26.35;52.02;99410.88;5092893;28;20189;-75
2023/08/08 10:36:10;;;;;;;1.05;0.90;;;;;;;26.51;53.79;99410.00;5102982;28;20192;-75
2023/08/08 10:38:41;;;;;;;1.20;0.80;;;;;;;26.86;53.60;99402.44;5110612;28;20243;-78
2023/08/08 10:41:18;;;;;;;0.85;0.80;;;;;;;26.78;51.19;99406.00;5104360;28;20279;-78
2023/08/08 10:43:53;;;;;;;1.80;1.10;;;;;;;26.76;53.21;99402.78;5084996;28;20673;-77
2023/08/08 10:46:23;;;;;;;1.20;0.95;;;;;;;26.69;55.25;99406.03;5109590;28;20558;-75
2023/08/08 10:48:56;;;;;;;2.45;1.00;;;;;;;26.76;55.24;99400.03;5109209;28;20677;-77
2023/08/08 10:51:22;;;;;;;1.20;0.90;;;;;;;26.82;55.32;99401.44;5089633;28;20224;-80
2023/08/08 10:53:52;;;;;;;1.17;1.08;;;;;;;26.96;53.31;99388.31;5101801;28;20412;-77
2023/08/08 10:56:20;;;;;;;0.85;0.80;;;;;;;27.06;52.13;99387.88;5111407;28;20194;-77
2023/08/08 10:58:48;;;;;;;0.95;0.90;;;;;;;27.23;53.17;99392.47;5105294;28;20204;-78
2023/08/08 11:01:16;;;;;;;1.20;0.73;;;;;;;27.13;51.44;99392.88;5083378;28;20198;-77
2023/08/08 11:03:44;;;;;;;0.90;0.90;;;;;;;27.26;49.86;99386.28;5084414;28;20202;-75
2023/08/08 11:06:11;;;;;;;0.90;0.90;;;;;;;27.48;48.21;99383.22;5085938;28;20691;-77
2023/08/08 11:08:38;;;;;;;0.60;0.60;;;;;;;27.70;47.94;99382.06;5099318;28;21154;-75
2023/08/08 11:11:06;;;;;;;1.08;0.95;;;;;;;28.05;51.14;99382.47;5104739;28;20206;-78
2023/08/08 11:13:33;;;;;;;1.10;0.93;;;;;;;28.16;48.66;99380.13;5111841;28;20203;-78
2023/08/08 11:16:01;;;;;;;0.88;0.82;;;;;;;28.20;48.19;99370.84;5111411;28;20223;-77
2023/08/08 11:18:29;;;;;;;0.75;0.70;;;;;;;27.91;47.96;99371.78;5095191;28;20622;-79
2023/08/08 11:20:55;;;;;;;1.23;1.10;;;;;;;27.82;48.51;99379.34;5113256;28;20546;-78
2023/08/08 11:23:38;;;;;;;0.82;0.80;;;;;;;27.75;44.68;99370.84;5106772;28;20702;-78
2023/08/08 11:26:05;;;;;;;0.80;0.70;;;;;;;27.51;47.20;99368.00;5109882;28;20546;-78
2023/08/08 11:28:35;;;;;;;0.82;0.70;;;;;;;27.58;48.97;99374.53;5106285;28;20188;-78
2023/08/08 11:31:02;;;;;;;1.33;0.93;;;;;;;27.79;48.98;99360.75;5104651;28;20191;-77